aviador You're here:

K1S5 Decoded Metar

in
Report Time2018-05-25 20:35:00
UTC Time2018-05-25 20:45:42
Flight Rules vfr VFR
WindCalm
Visibility9999 m
Phenomena:Light Rain
Clouds:Broken 100 Hf
Expected CloudBase > 5,600 ft AGL from Temp-Dew spread
Ceiling10,000 ft
Temp23°C
Dew Point09°C (41% RH)
AAT22.8°C
QNH1010 hPa
Raw Report
K1S5 252035Z AUTO 00000KT 10SM -RA BKN100 23/09 A2983 RMK AO2
T02270093=

Extra information for K1S5:More info

Social comments